Time;durP1;ratioP1;P1;durP2;ratioP2;P2;SDS_P1;SDS_P2;PMS_P1;PMS_P2;Temp;Humidity;BMP_temperature;BMP_pressure;BME280_temperature;BME280_humidity;BME280_pressure;Samples;Min_cycle;Max_cycle;Signal;HPM_P1;HPM_P2
2022/09/25 00:00:58;;;;;;;0.70;0.70;;;;;;;14.18;74.70;98503.59;4936854;29;20055;-69
2022/09/25 00:03:27;;;;;;;0.77;0.77;;;;;;;14.19;74.65;98499.09;4921178;29;20048;-69
2022/09/25 00:06:01;;;;;;;0.65;0.65;;;;;;;14.19;74.72;98501.75;4936853;29;20075;-69
2022/09/25 00:08:27;;;;;;;1.08;0.98;;;;;;;14.19;74.39;98501.75;4920511;29;20047;-68
2022/09/25 00:10:54;;;;;;;0.82;0.73;;;;;;;14.18;74.53;98500.13;4936708;29;20058;-69
2022/09/25 00:13:21;;;;;;;0.70;0.70;;;;;;;14.16;74.66;98495.03;4936720;29;20059;-69
2022/09/25 00:15:56;;;;;;;0.75;0.70;;;;;;;14.15;75.24;98500.56;4936686;29;20407;-68
2022/09/25 00:21:11;;;;;;;0.77;0.77;;;;;;;14.14;75.18;98497.09;4937796;29;20107;-69
2022/09/25 00:23:40;;;;;;;0.88;0.88;;;;;;;14.13;75.08;98496.28;4937775;29;20055;-68
2022/09/25 00:26:07;;;;;;;0.65;0.65;;;;;;;14.14;75.04;98494.44;4937104;29;20054;-69
2022/09/25 00:28:35;;;;;;;0.80;0.80;;;;;;;14.13;74.89;98490.97;4936290;29;20051;-68
2022/09/25 00:31:03;;;;;;;1.25;1.15;;;;;;;14.12;75.02;98488.53;4937497;29;20044;-69
2022/09/25 00:33:34;;;;;;;3.08;1.70;;;;;;;14.07;74.64;98486.53;4936313;29;20062;-68
2022/09/25 00:36:05;;;;;;;2.10;1.73;;;;;;;14.03;74.90;98487.22;4937517;29;20415;-68
2022/09/25 00:38:33;;;;;;;1.50;1.40;;;;;;;14.00;75.02;98485.81;4937341;29;20373;-68
2022/09/25 00:41:00;;;;;;;1.58;1.48;;;;;;;13.97;75.55;98485.47;4937388;29;20043;-69
2022/09/25 00:43:36;;;;;;;1.35;0.90;;;;;;;13.97;75.52;98480.16;4936400;29;20059;-69
2022/09/25 00:46:26;;;;;;;1.35;1.02;;;;;;;13.97;75.86;98488.13;4936005;29;20453;-68
2022/09/25 00:49:08;;;;;;;0.65;0.65;;;;;;;13.98;75.67;98477.25;4929645;29;20512;-68
2022/09/25 00:51:49;;;;;;;0.65;0.63;;;;;;;13.98;75.92;98479.91;4936139;29;20051;-68
2022/09/25 00:54:29;;;;;;;1.10;1.00;;;;;;;13.98;75.62;98481.75;4936243;29;20122;-70
2022/09/25 00:56:59;;;;;;;4.28;1.67;;;;;;;13.95;75.66;98471.56;4935306;29;20044;-69
2022/09/25 00:59:30;;;;;;;2.42;1.60;;;;;;;13.92;75.33;98474.66;4936288;29;20299;-69
2022/09/25 01:01:57;;;;;;;0.90;0.90;;;;;;;13.88;75.67;98475.13;4936035;29;20114;-69
2022/09/25 01:04:27;;;;;;;1.27;1.17;;;;;;;13.87;76.26;98473.47;4936852;29;20040;-68
2022/09/25 01:06:54;;;;;;;0.90;0.90;;;;;;;13.88;76.33;98477.78;4935361;29;20043;-69
2022/09/25 01:09:21;;;;;;;1.08;0.98;;;;;;;13.91;76.47;98479.16;4936013;29;20058;-69
2022/09/25 01:11:48;;;;;;;0.95;0.88;;;;;;;13.91;76.07;98481.00;4935830;29;20160;-69
2022/09/25 01:14:16;;;;;;;0.95;0.90;;;;;;;13.92;76.39;98480.81;4937206;29;20071;-69
2022/09/25 01:16:51;;;;;;;0.90;0.90;;;;;;;13.94;76.53;98472.59;4934881;29;20510;-69
2022/09/25 01:19:42;;;;;;;0.95;0.88;;;;;;;13.95;76.30;98474.22;4935691;29;20453;-67
2022/09/25 01:22:26;;;;;;;0.70;0.70;;;;;;;13.95;76.41;98475.03;4935779;29;20044;-69
2022/09/25 01:25:13;;;;;;;0.80;0.80;;;;;;;13.98;76.17;98471.94;4935419;29;20048;-70
2022/09/25 01:27:58;;;;;;;0.90;0.90;;;;;;;13.99;76.52;98473.56;4936470;29;20044;-68
2022/09/25 01:30:25;;;;;;;0.75;0.57;;;;;;;14.01;76.18;98470.69;4936460;29;20094;-67
2022/09/25 01:33:10;;;;;;;0.70;0.70;;;;;;;14.02;76.41;98470.47;4936430;29;20118;-66
2022/09/25 01:36:01;;;;;;;0.70;0.70;;;;;;;14.06;76.60;98466.31;4936742;29;20051;-68
2022/09/25 01:38:46;;;;;;;1.52;1.10;;;;;;;14.04;76.01;98468.41;4934732;29;20062;-70
2022/09/25 01:41:25;;;;;;;1.23;1.13;;;;;;;14.01;76.54;98468.03;4936533;29;20047;-69
2022/09/25 01:44:01;;;;;;;1.10;1.00;;;;;;;14.00;76.13;98461.91;4935211;29;20051;-68
2022/09/25 01:46:33;;;;;;;0.93;0.90;;;;;;;14.00;76.38;98461.91;4934600;29;20049;-68
2022/09/25 01:49:10;;;;;;;0.70;0.70;;;;;;;14.01;76.43;98460.06;4933622;29;20078;-67
2022/09/25 01:51:40;;;;;;;0.93;0.90;;;;;;;14.02;76.58;98470.47;4934820;29;20055;-67
2022/09/25 01:54:13;;;;;;;0.80;0.80;;;;;;;14.04;76.90;98457.78;4935096;29;20043;-67
2022/09/25 01:57:18;;;;;;;0.68;0.68;;;;;;;14.06;76.49;98458.34;4935363;29;20052;-68
2022/09/25 01:59:53;;;;;;;2.72;1.38;;;;;;;14.06;76.35;98452.22;4932857;29;20059;-67
2022/09/25 02:02:28;;;;;;;1.30;1.20;;;;;;;14.06;76.54;98462.84;4936170;29;20051;-68
2022/09/25 02:05:05;;;;;;;0.93;0.93;;;;;;;14.08;76.74;98455.44;4918855;29;20051;-68
2022/09/25 02:07:40;;;;;;;1.25;1.00;;;;;;;14.08;76.86;98458.09;4918242;29;20059;-68
2022/09/25 02:10:18;;;;;;;1.23;1.13;;;;;;;14.09;76.48;98457.91;4934638;29;20091;-68
2022/09/25 02:12:50;;;;;;;0.88;0.80;;;;;;;14.09;76.53;98452.59;4936192;29;20407;-68
2022/09/25 02:15:29;;;;;;;0.90;0.90;;;;;;;14.08;76.41;98455.44;4936440;29;20039;-69
2022/09/25 02:20:52;;;;;;;0.90;0.90;;;;;;;14.05;76.53;98456.72;4937421;29;20051;-68
2022/09/25 02:23:24;;;;;;;1.00;1.00;;;;;;;14.06;76.46;98465.50;4934653;29;20047;-68
2022/09/25 02:26:08;;;;;;;0.77;0.77;;;;;;;14.05;76.37;98458.56;4918700;29;20043;-68
2022/09/25 02:28:35;;;;;;;1.00;0.90;;;;;;;14.05;76.62;98453.25;4935651;29;20047;-67
2022/09/25 02:31:06;;;;;;;0.70;0.70;;;;;;;14.05;76.43;98453.25;4935820;29;20107;-68
2022/09/25 02:33:34;;;;;;;0.73;0.73;;;;;;;14.07;76.48;98449.31;4941873;29;20074;-68
2022/09/25 02:36:03;;;;;;;0.82;0.82;;;;;;;14.08;76.88;98450.13;4935031;29;20107;-68
2022/09/25 02:38:32;;;;;;;0.70;0.70;;;;;;;14.10;76.70;98456.06;4920216;29;20047;-68
2022/09/25 02:41:15;;;;;;;0.80;0.68;;;;;;;14.11;76.63;98450.50;4939392;29;20056;-68
2022/09/25 02:43:50;;;;;;;1.00;1.00;;;;;;;14.12;76.45;98451.31;4941576;29;20055;-68
2022/09/25 02:46:40;;;;;;;0.90;0.90;;;;;;;14.10;76.31;98448.09;4940273;29;20044;-67
2022/09/25 02:49:28;;;;;;;2.25;1.33;;;;;;;14.09;75.94;98457.09;4940077;29;20058;-68
2022/09/25 02:52:12;;;;;;;2.17;1.98;;;;;;;14.05;75.58;98450.59;4941268;29;20063;-69
2022/09/25 02:54:55;;;;;;;2.78;2.50;;;;;;;14.00;75.48;98450.44;4940492;29;20071;-68
2022/09/25 02:57:44;;;;;;;2.05;1.90;;;;;;;13.93;75.94;98450.53;4940734;29;20578;-68
2022/09/25 03:00:12;;;;;;;1.67;1.55;;;;;;;13.92;76.30;98446.25;4942675;29;20110;-68
2022/09/25 03:02:41;;;;;;;1.23;1.13;;;;;;;13.94;76.72;98446.84;4942678;29;20119;-68
2022/09/25 03:05:13;;;;;;;1.20;1.10;;;;;;;13.98;76.50;98460.50;4940987;29;20048;-68
2022/09/25 03:08:36;;;;;;;1.02;1.02;;;;;;;13.98;76.43;98456.00;4939569;29;20320;-69
2022/09/25 03:10:28;;;;;;;1.38;1.27;;;;;;;13.99;76.60;98454.94;4940559;29;20059;-68
2022/09/25 03:12:54;;;;;;;0.82;0.82;;;;;;;14.00;76.52;98448.63;4941088;29;20048;-68
2022/09/25 03:15:22;;;;;;;1.00;1.00;;;;;;;13.99;76.22;98457.59;4940496;29;20052;-68
2022/09/25 03:17:51;;;;;;;0.93;0.88;;;;;;;14.01;76.62;98452.09;4939823;29;20504;-69
2022/09/25 03:20:17;;;;;;;0.88;0.88;;;;;;;14.03;76.23;98452.66;4938847;29;20048;-69
2022/09/25 03:22:44;;;;;;;1.45;1.35;;;;;;;14.06;76.47;98457.53;4934979;29;20416;-69
2022/09/25 03:25:10;;;;;;;1.13;1.02;;;;;;;14.08;76.29;98455.44;4935075;29;20055;-69
2022/09/25 03:27:37;;;;;;;0.98;0.98;;;;;;;14.09;76.70;98457.09;4935785;29;20051;-69
2022/09/25 03:30:04;;;;;;;0.68;0.68;;;;;;;14.12;76.26;98464.59;4936210;29;20547;-69
2022/09/25 03:32:31;;;;;;;0.90;0.90;;;;;;;14.09;76.08;98463.22;4934984;29;20052;-69
2022/09/25 03:34:57;;;;;;;1.00;1.00;;;;;;;14.07;76.49;98456.50;4935943;29;20413;-69
2022/09/25 03:37:24;;;;;;;0.95;0.95;;;;;;;14.02;76.65;98459.03;4934469;29;20043;-69
2022/09/25 03:39:51;;;;;;;0.93;0.93;;;;;;;13.99;76.39;98446.16;4933915;29;20048;-68
2022/09/25 03:42:18;;;;;;;1.10;1.00;;;;;;;13.99;76.65;98452.28;4935124;29;20048;-69
2022/09/25 03:44:45;;;;;;;0.90;0.90;;;;;;;14.00;76.72;98445.13;4933739;29;20056;-69
2022/09/25 03:47:11;;;;;;;0.75;0.75;;;;;;;14.00;76.38;98455.75;4933026;29;20091;-69
2022/09/25 03:49:38;;;;;;;0.98;0.88;;;;;;;14.01;76.41;98441.47;4917920;29;20051;-69
2022/09/25 03:52:04;;;;;;;1.10;0.80;;;;;;;14.00;76.73;98439.81;4934816;29;20428;-69
2022/09/25 03:54:31;;;;;;;0.82;0.82;;;;;;;14.01;76.40;98449.44;4933557;29;20048;-69
2022/09/25 03:56:57;;;;;;;0.90;0.90;;;;;;;14.01;76.52;98452.09;4933954;29;20452;-69
2022/09/25 03:59:24;;;;;;;0.70;0.70;;;;;;;13.99;77.11;98446.16;4934633;29;20047;-68
2022/09/25 04:01:50;;;;;;;0.95;0.95;;;;;;;13.97;76.63;98454.38;5379979;23;20050;-71
2022/09/25 04:04:17;;;;;;;0.68;0.68;;;;;;;13.98;76.61;98447.22;4918524;29;20062;-71
2022/09/25 04:06:44;;;;;;;0.90;0.90;;;;;;;13.96;76.81;98446.59;4934720;29;20107;-71
2022/09/25 04:09:11;;;;;;;0.82;0.80;;;;;;;13.92;76.79;98448.91;4935243;29;20048;-69
2022/09/25 04:11:37;;;;;;;0.70;0.70;;;;;;;13.92;76.93;98446.25;4934793;29;20044;-70
2022/09/25 04:14:04;;;;;;;0.90;0.90;;;;;;;13.93;77.27;98442.56;4938535;29;20052;-70
2022/09/25 04:16:31;;;;;;;0.70;0.70;;;;;;;13.95;77.02;98443.13;4952102;23;20052;-66
2022/09/25 04:18:57;;;;;;;0.80;0.80;;;;;;;13.98;76.68;98448.03;4930583;29;20127;-67
2022/09/25 04:21:24;;;;;;;1.20;1.10;;;;;;;13.99;76.61;98446.97;4925577;29;20044;-68
2022/09/25 04:26:35;;;;;;;1.80;1.70;;;;;;;13.93;76.10;98442.56;4924845;29;20048;-67
2022/09/25 04:29:02;;;;;;;2.25;2.05;;;;;;;13.86;76.41;98439.97;4925292;29;20052;-68
2022/09/25 04:31:30;;;;;;;2.00;1.90;;;;;;;13.82;76.95;98440.66;4925877;29;20048;-67
2022/09/25 04:33:56;;;;;;;2.63;1.92;;;;;;;13.77;77.01;98443.97;4925058;29;20064;-67
2022/09/25 04:36:23;;;;;;;1.65;1.55;;;;;;;13.74;77.03;98451.56;4923784;29;20044;-67
2022/09/25 04:38:49;;;;;;;1.77;1.67;;;;;;;13.72;77.33;98451.81;4925581;29;20052;-67
2022/09/25 04:41:18;;;;;;;1.77;1.67;;;;;;;13.73;77.18;98449.94;4926389;29;20056;-65
2022/09/25 04:43:46;;;;;;;1.40;1.30;;;;;;;13.74;77.68;98454.22;4927759;29;20055;-66
2022/09/25 04:46:12;;;;;;;1.85;1.75;;;;;;;13.75;77.49;98450.53;4918105;29;20051;-65
2022/09/25 04:48:47;;;;;;;2.08;1.80;;;;;;;13.75;77.60;98455.84;4918482;29;20084;-66
2022/09/25 04:51:13;;;;;;;2.63;2.35;;;;;;;13.77;77.35;98451.94;4918395;29;20064;-66
2022/09/25 04:53:40;;;;;;;2.15;1.95;;;;;;;13.76;77.64;98454.84;4923790;29;20104;-66
2022/09/25 04:56:08;;;;;;;2.05;1.88;;;;;;;13.78;77.75;98455.41;4923023;29;20044;-66
2022/09/25 04:58:48;;;;;;;1.67;1.58;;;;;;;13.80;77.76;98459.47;4921187;29;20052;-66
2022/09/25 05:01:17;;;;;;;1.52;1.40;;;;;;;13.83;77.51;98455.53;4919039;29;20063;-66
2022/09/25 05:03:47;;;;;;;1.52;1.42;;;;;;;13.83;77.73;98453.69;4916929;29;20048;-67
2022/09/25 05:06:14;;;;;;;1.83;1.42;;;;;;;13.85;77.70;98456.97;4917700;29;20048;-66
2022/09/25 05:08:41;;;;;;;1.40;1.30;;;;;;;13.85;77.51;98456.97;4918143;29;20056;-66
2022/09/25 05:11:07;;;;;;;1.20;1.10;;;;;;;13.85;77.96;98464.13;4916673;29;20099;-67
2022/09/25 05:13:34;;;;;;;1.48;1.30;;;;;;;13.85;77.70;98459.63;4917077;29;20044;-66
2022/09/25 05:16:01;;;;;;;1.70;1.20;;;;;;;13.88;77.46;98458.38;4918016;29;20436;-67
2022/09/25 05:18:27;;;;;;;1.60;1.50;;;;;;;13.88;77.54;98453.06;4917321;29;20052;-67
2022/09/25 05:20:54;;;;;;;1.30;1.20;;;;;;;13.90;77.59;98458.13;4918077;29;20103;-67
2022/09/25 05:23:21;;;;;;;1.90;1.80;;;;;;;13.90;77.32;98450.16;4917982;29;20493;-67
2022/09/25 05:25:56;;;;;;;2.90;1.92;;;;;;;13.90;76.99;98456.28;4917417;29;20083;-67
2022/09/25 05:28:23;;;;;;;1.70;1.60;;;;;;;13.90;77.17;98452.81;4917413;29;20111;-67
2022/09/25 05:30:50;;;;;;;3.92;2.90;;;;;;;13.88;77.30;98456.53;4916414;29;20051;-67
2022/09/25 05:33:17;;;;;;;3.33;3.03;;;;;;;13.86;77.16;98461.22;4917547;29;20070;-67
2022/09/25 05:35:45;;;;;;;3.17;2.75;;;;;;;13.84;77.43;98458.00;4917406;29;20047;-67
2022/09/25 05:38:11;;;;;;;2.45;2.25;;;;;;;13.83;77.57;98461.66;4917087;29;20500;-67
2022/09/25 05:40:38;;;;;;;2.75;2.28;;;;;;;13.83;77.15;98460.84;4917449;29;20055;-67
2022/09/25 05:43:05;;;;;;;2.17;2.00;;;;;;;13.80;77.78;98462.13;4917340;29;20080;-67
2022/09/25 05:45:33;;;;;;;2.30;1.90;;;;;;;13.81;77.69;98458.44;4916037;29;20111;-68
2022/09/25 05:48:06;;;;;;;1.85;1.70;;;;;;;13.83;77.88;98460.84;4916763;29;20056;-67
2022/09/25 05:50:33;;;;;;;1.67;1.58;;;;;;;13.85;77.78;98467.59;4917289;29;20059;-67
2022/09/25 05:53:02;;;;;;;2.03;1.60;;;;;;;13.86;77.78;98463.88;4917071;29;20044;-66
2022/09/25 05:55:29;;;;;;;1.27;1.13;;;;;;;13.88;77.67;98466.34;4917044;29;20461;-67
2022/09/25 05:58:00;;;;;;;1.80;1.70;;;;;;;13.87;77.68;98460.19;4916637;29;20409;-67
2022/09/25 06:00:27;;;;;;;2.08;1.52;;;;;;;13.87;77.54;98468.16;4917039;29;20119;-67
2022/09/25 06:02:53;;;;;;;1.05;0.93;;;;;;;13.89;77.79;98470.63;4917201;29;20412;-67
2022/09/25 06:05:20;;;;;;;1.60;1.50;;;;;;;13.93;78.04;98478.97;4917259;29;20087;-67
2022/09/25 06:07:51;;;;;;;5.82;4.28;;;;;;;13.97;77.86;98474.81;4916651;29;20040;-67
2022/09/25 06:10:18;;;;;;;6.60;4.63;;;;;;;13.97;77.05;98474.81;4900316;29;20112;-66
2022/09/25 06:12:44;;;;;;;5.10;3.65;;;;;;;13.95;77.17;98475.03;4917055;29;20044;-66
2022/09/25 06:15:10;;;;;;;3.15;2.80;;;;;;;13.95;77.25;98482.19;4916794;29;20044;-66
2022/09/25 06:17:37;;;;;;;3.28;2.95;;;;;;;13.97;77.50;98480.94;4914866;29;20040;-67
2022/09/25 06:20:04;;;;;;;2.60;2.40;;;;;;;14.00;77.46;98479.69;4916711;29;20404;-67
2022/09/25 06:22:31;;;;;;;3.08;2.78;;;;;;;14.01;77.07;98481.31;4915525;29;20083;-67
2022/09/25 06:24:57;;;;;;;2.80;2.55;;;;;;;14.05;76.99;98485.16;4915532;29;20129;-67
2022/09/25 06:27:24;;;;;;;3.38;3.03;;;;;;;14.09;76.90;98478.34;4915850;29;20074;-68
2022/09/25 06:29:50;;;;;;;2.72;2.45;;;;;;;14.14;77.23;98478.50;4916359;29;20047;-67
2022/09/25 06:32:16;;;;;;;2.38;1.95;;;;;;;14.18;77.09;98484.19;4916486;29;20068;-67
2022/09/25 06:34:43;;;;;;;2.65;2.45;;;;;;;14.19;76.96;98481.28;4915988;29;20044;-67
2022/09/25 06:37:10;;;;;;;2.00;1.90;;;;;;;14.17;76.79;98486.03;4915752;29;20055;-67
2022/09/25 06:39:36;;;;;;;1.83;1.70;;;;;;;14.16;76.92;98483.56;4915219;29;20453;-67
2022/09/25 06:42:03;;;;;;;1.88;1.77;;;;;;;14.16;76.99;98489.69;4915997;29;20048;-67
2022/09/25 06:44:30;;;;;;;2.42;2.13;;;;;;;14.15;77.25;98489.94;4916205;29;20056;-67
2022/09/25 06:46:56;;;;;;;2.00;1.80;;;;;;;14.14;76.98;98489.13;4915517;29;20076;-67
2022/09/25 06:49:22;;;;;;;1.73;1.63;;;;;;;14.15;77.02;98492.59;4914730;29;20088;-67
2022/09/25 06:51:50;;;;;;;2.80;1.95;;;;;;;14.15;77.04;98492.59;4916233;29;20452;-67
2022/09/25 06:54:17;;;;;;;2.03;1.83;;;;;;;14.15;76.85;98488.09;4916169;29;20083;-67
2022/09/25 06:56:48;;;;;;;1.83;1.73;;;;;;;14.15;77.17;98490.75;4915546;29;20099;-67
2022/09/25 06:59:15;;;;;;;1.50;1.40;;;;;;;14.15;77.14;98492.59;4916184;29;20158;-68
2022/09/25 07:01:41;;;;;;;1.58;1.48;;;;;;;14.15;77.18;98498.72;4915066;29;20460;-67
2022/09/25 07:04:08;;;;;;;1.40;1.30;;;;;;;14.14;76.88;98489.13;4914906;29;20059;-67
2022/09/25 07:06:36;;;;;;;1.35;1.25;;;;;;;14.14;77.09;98494.44;4915237;29;20044;-67
2022/09/25 07:09:02;;;;;;;1.20;1.10;;;;;;;14.16;76.87;98504.84;4916033;29;20103;-66
2022/09/25 07:11:30;;;;;;;1.50;1.27;;;;;;;14.15;77.10;98490.75;4914655;29;20056;-66
2022/09/25 07:13:56;;;;;;;1.70;1.60;;;;;;;14.16;77.15;98495.03;4916092;29;20048;-67
2022/09/25 07:16:26;;;;;;;1.60;1.50;;;;;;;14.17;77.26;98493.19;4915259;29;20040;-66
2022/09/25 07:18:59;;;;;;;1.38;1.27;;;;;;;14.17;77.11;98493.19;4916077;29;20055;-67
2022/09/25 07:21:28;;;;;;;1.33;1.23;;;;;;;14.18;76.84;98500.94;4915869;29;20079;-65
2022/09/25 07:23:56;;;;;;;3.13;2.85;;;;;;;14.16;76.27;98497.69;4915857;29;20044;-67
2022/09/25 07:26:25;;;;;;;2.55;2.35;;;;;;;14.15;76.79;98497.91;4914037;29;20044;-67
2022/09/25 07:29:05;;;;;;;2.38;2.17;;;;;;;14.18;76.44;98498.28;4915829;29;20044;-67
2022/09/25 07:31:33;;;;;;;2.53;2.33;;;;;;;14.24;76.79;98502.69;4915867;29;20079;-67
2022/09/25 07:34:07;;;;;;;3.25;2.95;;;;;;;14.26;76.48;98497.97;4915753;29;20048;-67
2022/09/25 07:36:37;;;;;;;2.25;2.05;;;;;;;14.29;76.30;98497.53;4915070;29;20084;-67
2022/09/25 07:39:04;;;;;;;2.63;2.42;;;;;;;14.32;76.67;98498.91;4914585;29;20048;-65
2022/09/25 07:41:31;;;;;;;1.63;1.52;;;;;;;14.39;76.89;98502.31;4915718;29;20500;-67
2022/09/25 07:43:58;;;;;;;2.28;2.08;;;;;;;14.42;76.46;98495.75;4914845;29;20088;-67
2022/09/25 07:46:44;;;;;;;2.10;1.90;;;;;;;14.45;76.44;98506.75;4915939;29;20079;-68
2022/09/25 07:49:12;;;;;;;4.40;4.00;;;;;;;14.47;75.86;98496.69;4919989;29;20517;-67
2022/09/25 07:51:38;;;;;;;3.03;2.72;;;;;;;14.48;75.91;98495.63;4918231;29;20044;-67
2022/09/25 07:54:05;;;;;;;4.15;3.75;;;;;;;14.53;76.03;98502.97;4919823;29;20044;-66
2022/09/25 07:56:33;;;;;;;3.22;2.97;;;;;;;14.57;75.85;98499.66;4918901;29;20341;-67
2022/09/25 07:59:00;;;;;;;3.38;3.08;;;;;;;14.61;75.92;98505.31;4918432;29;20048;-66
2022/09/25 08:01:26;;;;;;;2.30;2.10;;;;;;;14.65;75.72;98503.81;4917996;29;20109;-66
2022/09/25 08:03:53;;;;;;;3.25;2.95;;;;;;;14.67;75.42;98496.44;4918200;29;20163;-67
2022/09/25 08:06:20;;;;;;;2.38;2.17;;;;;;;14.71;75.23;98502.94;4917255;29;20040;-66
2022/09/25 08:08:46;;;;;;;2.15;1.95;;;;;;;14.77;75.23;98504.69;4918061;29;20059;-66
2022/09/25 08:11:15;;;;;;;2.45;2.25;;;;;;;14.82;75.20;98512.81;4917877;29;20079;-66
2022/09/25 08:13:43;;;;;;;2.55;2.35;;;;;;;14.94;75.15;98510.19;4918928;29;20051;-66
2022/09/25 08:16:12;;;;;;;2.88;2.67;;;;;;;15.01;74.31;98505.56;4917348;29;20047;-66
2022/09/25 08:18:41;;;;;;;3.15;2.83;;;;;;;15.07;73.72;98498.53;4918952;29;20059;-66
2022/09/25 08:21:09;;;;;;;4.43;4.03;;;;;;;15.09;73.37;98507.06;4918989;29;20559;-66
2022/09/25 08:23:36;;;;;;;5.10;4.60;;;;;;;15.11;73.50;98508.47;4918933;29;20059;-66
2022/09/25 08:26:02;;;;;;;4.78;3.70;;;;;;;15.13;73.61;98504.78;4917334;29;20056;-66
2022/09/25 08:28:29;;;;;;;3.67;3.38;;;;;;;15.14;74.12;98503.72;4917461;29;20044;-67
2022/09/25 08:31:00;;;;;;;2.45;2.25;;;;;;;15.18;74.43;98508.34;4917501;29;20421;-66
2022/09/25 08:33:27;;;;;;;3.60;3.30;;;;;;;15.23;73.29;98507.69;4917441;29;20055;-65
2022/09/25 08:35:58;;;;;;;3.03;2.83;;;;;;;15.26;73.14;98500.03;4918918;29;20071;-66
2022/09/25 08:38:27;;;;;;;3.40;2.55;;;;;;;15.33;73.33;98506.06;4917709;29;20067;-65
2022/09/25 08:41:05;;;;;;;2.80;2.22;;;;;;;15.47;73.54;98497.84;4917447;29;20474;-66
2022/09/25 08:43:36;;;;;;;2.75;2.50;;;;;;;15.56;73.10;98501.81;4901932;29;20055;-66
2022/09/25 08:49:01;;;;;;;1.90;1.80;;;;;;;15.69;73.05;98501.59;4918645;29;20123;-63
2022/09/25 08:51:30;;;;;;;1.50;1.40;;;;;;;15.75;72.43;98503.31;4917414;29;20056;-65
2022/09/25 08:53:58;;;;;;;1.63;1.52;;;;;;;15.83;72.23;98502.16;4917357;29;20583;-64
2022/09/25 08:56:28;;;;;;;2.55;2.35;;;;;;;15.84;71.40;98501.13;4916830;29;20624;-65
2022/09/25 08:59:14;;;;;;;1.95;1.85;;;;;;;15.92;71.14;98503.44;4916798;29;20044;-64
2022/09/25 09:01:48;;;;;;;2.22;2.03;;;;;;;16.00;70.96;98505.75;4918417;29;20047;-65
2022/09/25 09:04:27;;;;;;;1.75;1.65;;;;;;;16.06;70.71;98499.47;4918119;29;20056;-65
2022/09/25 09:07:07;;;;;;;1.60;1.50;;;;;;;16.16;70.72;98492.69;4917843;29;20068;-65
2022/09/25 09:10:06;;;;;;;1.98;1.60;;;;;;;16.22;69.83;98495.25;4918285;29;20111;-68
2022/09/25 09:12:41;;;;;;;1.35;1.25;;;;;;;16.19;69.96;98494.91;4918008;29;20409;-66
2022/09/25 09:15:37;;;;;;;2.42;2.10;;;;;;;16.13;69.49;98501.19;4916647;29;20056;-65
2022/09/25 09:18:40;;;;;;;3.30;2.28;;;;;;;16.01;69.74;98506.56;4917203;29;20095;-65
2022/09/25 09:21:14;;;;;;;2.20;2.00;;;;;;;15.89;69.57;98505.75;4910516;29;20441;-65
2022/09/25 09:24:12;;;;;;;1.50;1.40;;;;;;;15.83;70.16;98512.81;4916625;29;20044;-67
2022/09/25 09:27:00;;;;;;;1.40;1.30;;;;;;;15.90;70.77;98512.69;4900165;29;20478;-68
2022/09/25 09:29:48;;;;;;;1.95;1.80;;;;;;;15.91;70.31;98515.13;4916684;29;20071;-65
2022/09/25 09:32:24;;;;;;;1.30;1.20;;;;;;;15.93;70.80;98507.72;4917751;29;20100;-65
2022/09/25 09:35:12;;;;;;;1.00;1.00;;;;;;;15.92;70.54;98506.09;4916349;29;20457;-65
2022/09/25 09:37:48;;;;;;;1.33;1.23;;;;;;;15.90;70.88;98510.03;4915937;29;20382;-65
2022/09/25 09:40:42;;;;;;;1.50;1.40;;;;;;;15.88;70.83;98498.78;4916149;29;20049;-65
2022/09/25 09:43:27;;;;;;;0.90;0.90;;;;;;;15.92;70.73;98508.78;4916680;29;20047;-65
2022/09/25 09:46:25;;;;;;;1.23;1.08;;;;;;;16.00;71.00;98503.06;4917439;29;20219;-67
2022/09/25 09:49:24;;;;;;;1.20;1.10;;;;;;;16.07;70.67;98509.06;4917509;29;20516;-66
2022/09/25 09:51:58;;;;;;;1.00;1.00;;;;;;;16.19;70.34;98506.38;4908272;29;20057;-67
2022/09/25 09:54:42;;;;;;;0.68;0.68;;;;;;;16.33;70.31;98504.28;4917635;29;20048;-65
2022/09/25 09:57:18;;;;;;;0.77;0.77;;;;;;;16.42;69.58;98504.69;4915938;29;20052;-64
2022/09/25 10:00:06;;;;;;;0.80;0.80;;;;;;;16.52;69.45;98505.69;4917218;29;20048;-65
2022/09/25 10:02:58;;;;;;;1.13;0.90;;;;;;;16.57;69.44;98495.13;4917445;29;20062;-65
2022/09/25 10:05:43;;;;;;;0.90;0.90;;;;;;;16.60;69.23;98499.97;4915959;29;20063;-65
2022/09/25 10:08:10;;;;;;;1.10;1.00;;;;;;;16.62;69.28;98512.28;4916498;29;20124;-68
2022/09/25 10:10:42;;;;;;;0.90;0.90;;;;;;;16.61;68.91;98503.44;4916332;29;20036;-64
2022/09/25 10:13:21;;;;;;;1.13;1.10;;;;;;;16.58;69.18;98496.75;4918819;29;20056;-65
2022/09/25 10:15:51;;;;;;;1.50;1.40;;;;;;;16.59;68.93;98497.56;4921213;29;20377;-65
2022/09/25 10:18:21;;;;;;;2.55;2.15;;;;;;;16.61;67.91;98492.78;4921687;29;20493;-65
2022/09/25 10:20:55;;;;;;;2.80;2.55;;;;;;;16.64;68.37;98488.81;4917687;29;20056;-66
2022/09/25 10:23:58;;;;;;;2.13;1.92;;;;;;;16.78;68.11;98498.19;4917576;29;20048;-66
2022/09/25 10:26:26;;;;;;;1.38;1.27;;;;;;;16.89;68.37;98491.97;4861536;29;21112;-67
2022/09/25 10:28:55;;;;;;;1.50;1.40;;;;;;;16.98;67.83;98490.53;4910161;29;20071;-67
2022/09/25 10:31:24;;;;;;;1.85;1.50;;;;;;;17.05;67.83;98485.84;4915934;29;20043;-66
2022/09/25 10:33:59;;;;;;;1.60;1.50;;;;;;;17.08;67.41;98489.91;4915626;29;20103;-69
2022/09/25 10:36:36;;;;;;;1.67;1.58;;;;;;;17.20;67.39;98495.16;4915962;29;20168;-67
2022/09/25 10:39:18;;;;;;;1.88;1.77;;;;;;;17.29;66.00;98494.50;4917831;29;20044;-67
2022/09/25 10:42:34;;;;;;;1.95;1.83;;;;;;;17.39;65.67;98493.03;4915846;29;20500;-67
2022/09/25 10:45:34;;;;;;;1.55;1.45;;;;;;;17.40;65.38;98490.13;4917110;29;20127;-66
2022/09/25 10:51:20;;;;;;;1.23;1.13;;;;;;;17.38;65.62;98488.75;4916580;29;20067;-66
2022/09/25 10:53:48;;;;;;;1.20;1.10;;;;;;;17.40;65.53;98492.00;4915808;29;20048;-66
2022/09/25 10:56:21;;;;;;;1.00;1.00;;;;;;;17.42;65.64;98492.56;4916545;29;20096;-66
2022/09/25 10:58:53;;;;;;;0.98;0.93;;;;;;;17.45;65.47;98495.53;4915473;29;20052;-69
2022/09/25 11:01:30;;;;;;;1.37;1.27;;;;;;;17.38;65.02;98486.88;4916906;29;20044;-66
2022/09/25 11:03:58;;;;;;;1.30;1.20;;;;;;;17.21;64.48;98489.56;4915050;29;20063;-66
2022/09/25 11:06:28;;;;;;;1.20;1.10;;;;;;;16.99;64.80;98483.34;4915967;29;20585;-66
2022/09/25 11:09:07;;;;;;;1.10;1.00;;;;;;;16.78;65.25;98491.00;4916229;29;20046;-66
2022/09/25 11:11:35;;;;;;;1.10;1.00;;;;;;;16.67;65.62;98481.16;4915360;29;20126;-67
2022/09/25 11:14:03;;;;;;;0.90;0.90;;;;;;;16.59;65.40;98494.88;4916291;29;20489;-66
2022/09/25 11:16:46;;;;;;;0.93;0.93;;;;;;;16.47;65.80;98489.59;4915572;29;20556;-67
2022/09/25 11:19:19;;;;;;;0.90;0.90;;;;;;;16.43;66.20;98493.78;4915043;29;20104;-66
2022/09/25 11:21:58;;;;;;;0.63;0.63;;;;;;;16.41;66.64;98497.72;4917365;29;20530;-68
2022/09/25 11:24:49;;;;;;;0.80;0.80;;;;;;;16.39;66.49;98495.31;4919154;29;20468;-65
2022/09/25 11:27:19;;;;;;;0.63;0.63;;;;;;;16.38;66.40;98490.22;4918317;29;20052;-66
2022/09/25 11:29:57;;;;;;;0.70;0.70;;;;;;;16.35;66.60;98494.16;4918890;29;20092;-66
2022/09/25 11:32:39;;;;;;;0.90;0.90;;;;;;;16.31;66.80;98487.69;4903441;29;20052;-66
2022/09/25 11:35:38;;;;;;;1.35;1.25;;;;;;;16.30;67.10;98489.53;4920042;29;20406;-65
2022/09/25 11:42:02;;;;;;;1.58;1.48;;;;;;;16.48;67.12;98491.19;4918715;29;20087;-66
2022/09/25 11:44:31;;;;;;;1.83;1.35;;;;;;;16.58;67.20;98485.25;4879889;29;20465;-68
2022/09/25 11:47:23;;;;;;;1.67;1.20;;;;;;;16.69;66.82;98488.91;4907393;29;20060;-67
2022/09/25 11:49:53;;;;;;;1.42;1.30;;;;;;;16.75;66.72;98480.78;4919405;29;20511;-67
2022/09/25 11:52:36;;;;;;;1.50;1.40;;;;;;;16.84;66.73;98489.22;4918743;29;20399;-66
2022/09/25 11:55:41;;;;;;;1.40;1.30;;;;;;;16.91;66.73;98486.41;4920007;29;20501;-66
2022/09/25 11:58:27;;;;;;;1.10;1.00;;;;;;;16.91;67.04;98487.22;4904474;29;20060;-66
2022/09/25 12:01:15;;;;;;;1.33;1.20;;;;;;;16.88;66.85;98493.03;4918301;29;20051;-66
2022/09/25 12:04:16;;;;;;;1.27;1.17;;;;;;;16.81;67.06;98484.34;4919438;29;20059;-67
2022/09/25 12:07:08;;;;;;;1.25;1.15;;;;;;;16.76;67.11;98484.28;4918953;29;20048;-65
2022/09/25 12:10:18;;;;;;;1.30;1.20;;;;;;;16.69;67.19;98478.22;4918273;29;20080;-66
2022/09/25 12:12:58;;;;;;;1.50;1.40;;;;;;;16.56;67.65;98476.69;4919226;29;20056;-66
2022/09/25 12:16:06;;;;;;;1.60;1.48;;;;;;;16.46;67.92;98468.50;4918279;29;20060;-65
2022/09/25 12:19:00;;;;;;;1.70;1.60;;;;;;;16.35;67.58;98475.50;4918433;29;20048;-66
2022/09/25 12:21:45;;;;;;;1.42;1.33;;;;;;;16.22;67.93;98473.09;4917994;29;20125;-66